Time;durP1;ratioP1;P1;durP2;ratioP2;P2;SDS_P1;SDS_P2;PMS_P1;PMS_P2;Temp;Humidity;BMP_temperature;BMP_pressure;BME280_temperature;BME280_humidity;BME280_pressure;Samples;Min_cycle;Max_cycle;Signal;HPM_P1;HPM_P2
2021/01/15 00:00:58;;;;;;;13.37;9.40;;;2.40;99.90;;;;;;5014779;28;20215;-84
2021/01/15 00:03:24;;;;;;;12.80;8.23;;;2.40;99.90;;;;;;5015531;28;20469;-83
2021/01/15 00:05:50;;;;;;;14.10;8.93;;;2.30;99.90;;;;;;5014781;28;20212;-83
2021/01/15 00:08:17;;;;;;;13.93;8.37;;;2.30;99.90;;;;;;5014452;28;20464;-83
2021/01/15 00:10:44;;;;;;;15.10;9.17;;;2.20;99.90;;;;;;5013955;28;20456;-87
2021/01/15 00:13:11;;;;;;;10.30;8.10;;;2.20;99.90;;;;;;5002855;28;20511;-83
2021/01/15 00:15:37;;;;;;;15.00;8.70;;;2.20;99.90;;;;;;5008579;28;20450;-84
2021/01/15 00:18:04;;;;;;;11.05;7.82;;;2.30;99.90;;;;;;5007089;28;20574;-84
2021/01/15 00:20:30;;;;;;;12.15;9.52;;;2.20;99.90;;;;;;5011466;28;20286;-84
2021/01/15 00:22:57;;;;;;;11.47;8.20;;;2.20;99.90;;;;;;5013230;28;20297;-84
2021/01/15 00:25:23;;;;;;;14.43;8.90;;;2.20;99.90;;;;;;5005878;28;20457;-84
2021/01/15 00:27:50;;;;;;;14.57;8.48;;;2.20;99.90;;;;;;4993697;28;20557;-83
2021/01/15 00:30:17;;;;;;;12.25;8.25;;;2.10;99.90;;;;;;5005304;28;20308;-84
2021/01/15 00:32:43;;;;;;;12.27;7.90;;;2.20;99.90;;;;;;5012279;28;20202;-87
2021/01/15 00:35:10;;;;;;;13.20;7.90;;;2.10;99.90;;;;;;5020593;28;20509;-84
2021/01/15 00:37:38;;;;;;;12.07;7.57;;;2.10;99.90;;;;;;5032796;28;20498;-83
2021/01/15 00:40:06;;;;;;;16.07;8.90;;;2.00;99.90;;;;;;5013197;28;20449;-83
2021/01/15 00:42:33;;;;;;;11.93;7.80;;;1.90;99.90;;;;;;5013050;28;20568;-83
2021/01/15 00:45:00;;;;;;;12.32;7.78;;;1.90;99.90;;;;;;5013000;28;20230;-84
2021/01/15 00:47:30;;;;;;;9.70;6.35;;;1.90;99.90;;;;;;5013712;28;20209;-83
2021/01/15 00:49:56;;;;;;;13.10;7.10;;;1.80;99.90;;;;;;5012752;28;20209;-84
2021/01/15 00:52:22;;;;;;;13.75;7.22;;;1.80;99.90;;;;;;5013800;28;20298;-84
2021/01/15 00:54:49;;;;;;;9.05;6.55;;;1.90;99.90;;;;;;5013059;28;20636;-84
2021/01/15 00:57:15;;;;;;;11.93;6.97;;;1.90;99.90;;;;;;5013559;28;20205;-84
2021/01/15 00:59:41;;;;;;;11.48;7.32;;;1.90;99.90;;;;;;5013667;28;20293;-83
2021/01/15 01:02:09;;;;;;;12.90;6.60;;;1.90;99.90;;;;;;5013672;28;20300;-83
2021/01/15 01:04:35;;;;;;;11.48;6.85;;;1.90;99.90;;;;;;5013717;28;20364;-84
2021/01/15 01:07:01;;;;;;;11.02;7.80;;;1.90;99.90;;;;;;5013956;28;20657;-84
2021/01/15 01:09:28;;;;;;;10.10;7.00;;;1.90;99.90;;;;;;5015339;28;20209;-84
2021/01/15 01:11:57;;;;;;;9.13;6.10;;;1.90;99.90;;;;;;5011136;28;20503;-84
2021/01/15 01:14:27;;;;;;;11.00;7.57;;;1.80;99.90;;;;;;5013336;28;20215;-84
2021/01/15 01:16:53;;;;;;;9.80;6.70;;;1.90;99.90;;;;;;4994803;28;20286;-84
2021/01/15 01:19:20;;;;;;;12.30;7.70;;;1.90;99.90;;;;;;4996547;28;20493;-84
2021/01/15 01:21:47;;;;;;;10.73;7.20;;;1.90;99.90;;;;;;4997415;28;20913;-87
2021/01/15 01:24:13;;;;;;;12.33;7.73;;;1.90;99.90;;;;;;4997177;28;20460;-84
2021/01/15 01:26:39;;;;;;;9.85;7.55;;;1.80;99.90;;;;;;4997615;28;20485;-83
2021/01/15 01:29:06;;;;;;;10.57;7.03;;;1.80;99.90;;;;;;4997101;28;20376;-83
2021/01/15 01:31:32;;;;;;;11.27;7.57;;;1.80;99.90;;;;;;4997348;28;20207;-83
2021/01/15 01:33:58;;;;;;;7.93;6.57;;;1.80;99.90;;;;;;4995810;28;20578;-84
2021/01/15 01:36:26;;;;;;;12.90;8.00;;;1.70;99.90;;;;;;4997203;28;20239;-84
2021/01/15 01:38:52;;;;;;;9.98;7.88;;;1.70;99.90;;;;;;4996523;28;20315;-84
2021/01/15 01:41:18;;;;;;;11.17;7.77;;;1.80;99.90;;;;;;4997142;28;20234;-84
2021/01/15 01:43:45;;;;;;;13.70;8.18;;;1.80;99.90;;;;;;4997024;28;20492;-87
2021/01/15 01:46:11;;;;;;;10.95;7.30;;;1.80;99.90;;;;;;4996690;28;20210;-84
2021/01/15 01:48:39;;;;;;;9.73;7.88;;;1.80;99.90;;;;;;4997350;28;20212;-84
2021/01/15 01:51:06;;;;;;;13.45;8.25;;;1.80;99.90;;;;;;4996103;28;20218;-84
2021/01/15 01:53:37;;;;;;;12.00;8.10;;;1.80;99.90;;;;;;4997194;28;20234;-84
2021/01/15 01:56:06;;;;;;;11.00;8.38;;;1.80;99.90;;;;;;4996246;28;20496;-84
2021/01/15 01:58:33;;;;;;;15.40;9.13;;;1.80;99.90;;;;;;4996871;28;20230;-84
2021/01/15 02:01:02;;;;;;;10.63;7.97;;;1.80;99.90;;;;;;4996503;28;20259;-84
2021/01/15 02:03:28;;;;;;;11.15;8.20;;;1.90;99.90;;;;;;4996872;28;20210;-84
2021/01/15 02:05:55;;;;;;;12.35;8.30;;;1.90;99.90;;;;;;4995607;28;20637;-84
2021/01/15 02:08:21;;;;;;;10.95;8.35;;;1.90;99.90;;;;;;4996871;28;20221;-84
2021/01/15 02:11:00;;;;;;;12.00;9.65;;;1.90;99.90;;;;;;4995949;28;20202;-85
2021/01/15 02:13:32;;;;;;;14.32;8.98;;;1.90;99.90;;;;;;4996959;28;20635;-83
2021/01/15 02:16:03;;;;;;;12.75;8.70;;;1.80;99.90;;;;;;5001654;28;20206;-84
2021/01/15 02:18:33;;;;;;;13.40;8.52;;;1.80;99.90;;;;;;5016382;28;20275;-84
2021/01/15 02:21:39;;;;;;;14.83;9.43;;;1.80;99.90;;;;;;5006380;28;20644;-83
2021/01/15 02:24:17;;;;;;;13.93;9.05;;;1.80;99.90;;;;;;4995582;28;20989;-84
2021/01/15 02:27:15;;;;;;;12.80;9.50;;;1.80;99.90;;;;;;4995926;28;20210;-83
2021/01/15 02:29:56;;;;;;;14.63;9.65;;;1.80;99.90;;;;;;5006660;28;20213;-83
2021/01/15 02:32:54;;;;;;;13.43;9.07;;;1.80;99.90;;;;;;5014975;28;20191;-84
2021/01/15 02:35:46;;;;;;;15.02;9.38;;;1.80;99.90;;;;;;5003339;28;20245;-83
2021/01/15 02:38:40;;;;;;;20.95;10.38;;;1.90;99.90;;;;;;5015788;28;20309;-83
2021/01/15 02:41:24;;;;;;;13.32;9.93;;;1.80;99.90;;;;;;5015116;28;20261;-84
2021/01/15 02:43:55;;;;;;;18.40;11.40;;;1.90;99.90;;;;;;5014517;28;20230;-86
2021/01/15 02:46:46;;;;;;;18.10;12.37;;;1.80;99.90;;;;;;5015762;28;20442;-84
2021/01/15 02:49:14;;;;;;;17.95;11.90;;;1.80;99.90;;;;;;5015323;28;20533;-83
2021/01/15 02:51:41;;;;;;;15.50;11.63;;;1.80;99.90;;;;;;5015366;28;20701;-83
2021/01/15 02:54:08;;;;;;;19.27;11.70;;;1.80;99.90;;;;;;5014210;28;20454;-83
2021/01/15 02:56:36;;;;;;;19.63;13.82;;;1.80;99.90;;;;;;5015404;28;20463;-84
2021/01/15 02:59:02;;;;;;;19.60;13.93;;;1.80;99.90;;;;;;5014767;28;20287;-84
2021/01/15 03:01:32;;;;;;;16.30;11.85;;;1.80;99.90;;;;;;5015261;28;20458;-84
2021/01/15 03:04:06;;;;;;;20.08;13.48;;;1.90;99.90;;;;;;5016748;28;20206;-84
2021/01/15 03:06:39;;;;;;;22.08;13.57;;;1.80;99.90;;;;;;5015088;28;20561;-84
2021/01/15 03:09:07;;;;;;;19.92;14.73;;;1.80;99.90;;;;;;5014495;28;20200;-84
2021/01/15 03:11:36;;;;;;;18.48;13.50;;;1.70;99.90;;;;;;5011365;28;20211;-84
2021/01/15 03:14:02;;;;;;;23.98;14.13;;;1.70;99.90;;;;;;5002041;28;20202;-84
2021/01/15 03:16:30;;;;;;;21.42;14.30;;;1.70;99.90;;;;;;5008208;28;20207;-84
2021/01/15 03:18:59;;;;;;;23.05;15.05;;;1.80;99.90;;;;;;4994627;28;20234;-84
2021/01/15 03:21:28;;;;;;;20.38;13.43;;;1.70;99.90;;;;;;4995830;28;20214;-84
2021/01/15 03:23:55;;;;;;;17.35;12.98;;;1.70;99.90;;;;;;4994504;28;20232;-85
2021/01/15 03:26:22;;;;;;;23.63;15.30;;;1.70;99.90;;;;;;4994967;28;20203;-84
2021/01/15 03:28:49;;;;;;;24.60;16.05;;;1.70;99.90;;;;;;4995136;28;20460;-84
2021/01/15 03:31:16;;;;;;;21.95;14.65;;;1.70;99.90;;;;;;4997401;28;20207;-84
2021/01/15 03:33:42;;;;;;;19.40;14.55;;;1.60;99.90;;;;;;5014669;28;20205;-83
2021/01/15 03:36:09;;;;;;;23.38;15.48;;;1.60;99.90;;;;;;5013950;28;20538;-84
2021/01/15 03:38:35;;;;;;;23.30;15.63;;;1.60;99.90;;;;;;5014333;28;20223;-83
2021/01/15 03:41:02;;;;;;;19.88;14.90;;;1.70;99.90;;;;;;5013522;28;20639;-85
2021/01/15 03:43:30;;;;;;;22.60;15.77;;;1.70;99.90;;;;;;5014602;28;20226;-83
2021/01/15 03:45:56;;;;;;;19.30;13.67;;;1.70;99.90;;;;;;5013832;28;20300;-85
2021/01/15 03:48:23;;;;;;;19.05;15.02;;;1.70;99.90;;;;;;5014680;28;20453;-84
2021/01/15 03:50:50;;;;;;;24.33;15.90;;;1.70;99.90;;;;;;5014468;28;20292;-83
2021/01/15 03:53:17;;;;;;;18.60;14.77;;;1.70;99.90;;;;;;5013797;28;20289;-83
2021/01/15 03:55:44;;;;;;;24.03;16.97;;;1.80;99.90;;;;;;5013934;28;20559;-84
2021/01/15 03:58:11;;;;;;;22.10;15.63;;;1.70;99.90;;;;;;5013695;28;21305;-84
2021/01/15 04:00:38;;;;;;;22.13;14.55;;;1.70;99.90;;;;;;5014042;28;20460;-83
2021/01/15 04:03:05;;;;;;;21.05;15.05;;;1.80;99.90;;;;;;5013495;28;20293;-84
2021/01/15 04:05:32;;;;;;;22.40;16.63;;;1.70;99.90;;;;;;5013993;28;20206;-84
2021/01/15 04:07:59;;;;;;;23.57;16.27;;;1.60;99.90;;;;;;5013621;28;20320;-83
2021/01/15 04:10:25;;;;;;;22.33;16.33;;;1.60;99.90;;;;;;5014218;28;20453;-84
2021/01/15 04:12:52;;;;;;;19.77;14.73;;;1.60;99.90;;;;;;5001255;28;20207;-86
2021/01/15 04:15:19;;;;;;;22.07;15.37;;;1.60;99.90;;;;;;5013039;28;20290;-84
2021/01/15 04:17:45;;;;;;;20.60;15.00;;;1.70;99.90;;;;;;5001380;28;20520;-83
2021/01/15 04:20:14;;;;;;;29.50;15.88;;;1.70;99.90;;;;;;4994054;28;20203;-84
2021/01/15 04:22:41;;;;;;;22.00;15.00;;;1.70;99.90;;;;;;5003688;28;20206;-84
2021/01/15 04:25:09;;;;;;;19.73;13.90;;;1.70;99.90;;;;;;5013239;28;20259;-84
2021/01/15 04:27:36;;;;;;;26.02;17.33;;;1.70;99.90;;;;;;5014305;28;20289;-84
2021/01/15 04:30:04;;;;;;;25.10;17.07;;;1.70;99.90;;;;;;4996126;28;20207;-84
2021/01/15 04:32:32;;;;;;;22.42;14.88;;;1.60;99.90;;;;;;4993676;28;20450;-84
2021/01/15 04:34:58;;;;;;;30.60;19.08;;;1.50;99.90;;;;;;4994091;28;20210;-84
2021/01/15 04:37:24;;;;;;;23.63;15.57;;;1.50;99.90;;;;;;4994687;28;20292;-83
2021/01/15 04:39:52;;;;;;;21.45;15.52;;;1.50;99.90;;;;;;4994363;28;20678;-84
2021/01/15 04:42:21;;;;;;;22.23;17.55;;;1.60;99.90;;;;;;4995773;28;20234;-83
2021/01/15 04:44:48;;;;;;;25.63;18.02;;;1.50;99.90;;;;;;4994425;28;20238;-83
2021/01/15 04:47:15;;;;;;;28.88;17.88;;;1.50;99.90;;;;;;4994870;28;20316;-83
2021/01/15 04:49:44;;;;;;;22.25;15.98;;;1.50;99.90;;;;;;4995669;28;20239;-83
2021/01/15 04:52:13;;;;;;;21.95;15.77;;;1.40;99.90;;;;;;4996685;28;20297;-81
2021/01/15 04:54:40;;;;;;;24.77;16.30;;;1.40;99.90;;;;;;5001168;28;20211;-83
2021/01/15 04:57:08;;;;;;;22.35;15.73;;;1.40;99.90;;;;;;4993668;28;20209;-84
2021/01/15 04:59:44;;;;;;;27.23;19.85;;;1.40;99.90;;;;;;4993979;28;20230;-83
2021/01/15 05:02:12;;;;;;;24.98;16.15;;;1.40;99.90;;;;;;4993604;28;20199;-84
2021/01/15 05:04:38;;;;;;;23.60;16.45;;;1.40;99.90;;;;;;4994261;28;20203;-83
2021/01/15 05:07:07;;;;;;;30.15;17.50;;;1.50;99.90;;;;;;4993404;28;20202;-84
2021/01/15 05:09:41;;;;;;;22.30;15.32;;;1.40;99.90;;;;;;4993646;28;20218;-84
2021/01/15 05:12:09;;;;;;;24.90;17.42;;;1.50;99.90;;;;;;4998842;28;20205;-84
2021/01/15 05:14:36;;;;;;;26.38;16.40;;;1.40;99.90;;;;;;4997818;28;20211;-83
2021/01/15 05:17:04;;;;;;;24.17;16.10;;;1.40;99.90;;;;;;5009530;28;20214;-84
2021/01/15 05:19:31;;;;;;;27.33;18.00;;;1.40;99.90;;;;;;5017465;28;20233;-83
2021/01/15 05:21:58;;;;;;;30.08;17.65;;;1.40;99.90;;;;;;5014657;28;20218;-84
2021/01/15 05:24:26;;;;;;;29.15;18.80;;;1.30;99.90;;;;;;5013538;28;20210;-84
2021/01/15 05:26:53;;;;;;;35.40;19.33;;;1.30;99.90;;;;;;5013593;28;20278;-83
2021/01/15 05:29:19;;;;;;;27.30;18.90;;;1.20;99.90;;;;;;5012495;28;20215;-84
2021/01/15 05:31:50;;;;;;;26.60;18.58;;;1.20;99.90;;;;;;5013368;28;20535;-83
2021/01/15 05:34:18;;;;;;;25.58;17.20;;;1.20;99.90;;;;;;5012299;28;20206;-83
2021/01/15 05:36:44;;;;;;;35.58;20.33;;;1.20;99.90;;;;;;5013396;28;20255;-84
2021/01/15 05:39:17;;;;;;;29.20;17.73;;;1.20;99.90;;;;;;5012404;28;20226;-83
2021/01/15 05:41:45;;;;;;;26.77;19.00;;;1.20;99.90;;;;;;5012758;28;20213;-83
2021/01/15 05:44:12;;;;;;;30.95;21.35;;;1.20;99.90;;;;;;5012455;28;20678;-83
2021/01/15 05:46:47;;;;;;;28.52;19.00;;;1.20;99.90;;;;;;5013424;28;20488;-83
2021/01/15 05:49:13;;;;;;;32.33;19.83;;;1.30;99.90;;;;;;5012426;28;20202;-84
2021/01/15 05:51:41;;;;;;;30.45;20.58;;;1.20;99.90;;;;;;4997701;28;20210;-83
2021/01/15 05:54:08;;;;;;;29.13;19.33;;;1.30;99.90;;;;;;4992739;28;20277;-83
2021/01/15 05:56:40;;;;;;;28.58;19.63;;;1.20;99.90;;;;;;4993965;28;20208;-83
2021/01/15 05:59:09;;;;;;;29.20;18.98;;;1.30;99.90;;;;;;4993204;28;20238;-83
2021/01/15 06:01:48;;;;;;;23.67;17.30;;;1.20;99.90;;;;;;4993675;28;20211;-83
2021/01/15 06:04:16;;;;;;;32.65;20.17;;;1.30;99.90;;;;;;4993187;28;20278;-83
2021/01/15 06:06:44;;;;;;;32.40;19.58;;;1.30;99.90;;;;;;4996004;28;20516;-83
2021/01/15 06:09:11;;;;;;;27.63;18.40;;;1.30;99.90;;;;;;5009271;28;20307;-84
2021/01/15 06:11:40;;;;;;;25.38;16.88;;;1.30;99.90;;;;;;5015609;28;20213;-84
2021/01/15 06:14:23;;;;;;;26.70;17.95;;;1.30;99.90;;;;;;5005712;28;20335;-83
2021/01/15 06:17:01;;;;;;;29.42;18.88;;;1.30;99.90;;;;;;4995181;28;20206;-83
2021/01/15 06:19:43;;;;;;;26.27;18.27;;;1.30;99.90;;;;;;4997505;28;20684;-83
2021/01/15 06:22:28;;;;;;;30.60;20.02;;;1.30;99.90;;;;;;4997781;28;20539;-83
2021/01/15 06:25:22;;;;;;;32.22;21.05;;;1.40;99.90;;;;;;4997000;28;20191;-86
2021/01/15 06:27:51;;;;;;;28.13;19.40;;;1.30;99.90;;;;;;4994205;28;20208;-84
2021/01/15 06:30:23;;;;;;;29.93;19.60;;;1.30;99.90;;;;;;5008617;28;20211;-85
2021/01/15 06:32:50;;;;;;;31.80;19.42;;;1.30;99.90;;;;;;5015439;28;20529;-84
2021/01/15 06:35:27;;;;;;;27.23;18.27;;;1.30;99.90;;;;;;5015197;28;20611;-84
2021/01/15 06:38:02;;;;;;;27.58;18.13;;;1.30;99.90;;;;;;5016483;28;20199;-84
2021/01/15 06:40:33;;;;;;;30.52;19.80;;;1.30;99.90;;;;;;5015693;28;20205;-84
2021/01/15 06:42:59;;;;;;;34.05;19.85;;;1.30;99.90;;;;;;5015377;28;20201;-86
2021/01/15 06:45:37;;;;;;;30.00;19.45;;;1.30;99.90;;;;;;5015485;28;20605;-84
2021/01/15 06:48:09;;;;;;;33.97;20.38;;;1.40;99.90;;;;;;5014921;28;20195;-84
2021/01/15 06:50:39;;;;;;;29.95;19.45;;;1.40;99.90;;;;;;5016059;28;20208;-83
2021/01/15 06:53:15;;;;;;;28.15;17.70;;;1.50;99.90;;;;;;5015482;28;20213;-83
2021/01/15 06:55:45;;;;;;;29.60;18.38;;;1.40;99.90;;;;;;5016247;28;20197;-82
2021/01/15 06:58:19;;;;;;;27.63;19.30;;;1.40;99.90;;;;;;5014862;28;20230;-83
2021/01/15 07:01:17;;;;;;;35.42;20.63;;;1.40;99.90;;;;;;5016010;28;20198;-82
2021/01/15 07:04:25;;;;;;;31.67;18.80;;;1.20;99.90;;;;;;5015592;28;20194;-82
2021/01/15 07:07:11;;;;;;;31.50;19.02;;;1.30;99.90;;;;;;5009279;28;20646;-82
2021/01/15 07:09:38;;;;;;;30.75;19.23;;;1.30;99.90;;;;;;5015393;28;20198;-83
2021/01/15 07:12:08;;;;;;;32.88;21.38;;;1.30;99.90;;;;;;5009840;28;20232;-86
2021/01/15 07:14:44;;;;;;;30.00;17.50;;;1.30;99.90;;;;;;5003881;28;20205;-82
2021/01/15 07:17:15;;;;;;;30.17;20.42;;;1.40;99.90;;;;;;5014680;28;20216;-83
2021/01/15 07:19:44;;;;;;;26.55;19.10;;;1.40;99.90;;;;;;5015742;28;20218;-83
2021/01/15 07:22:12;;;;;;;28.13;18.83;;;1.50;99.90;;;;;;5015063;28;20548;-83
2021/01/15 07:24:39;;;;;;;28.65;18.08;;;1.50;99.90;;;;;;5015305;28;20207;-83
2021/01/15 07:27:07;;;;;;;27.50;19.17;;;1.60;99.90;;;;;;5014763;28;20278;-82
2021/01/15 07:29:40;;;;;;;26.00;18.25;;;1.50;99.90;;;;;;5018211;28;20244;-83
2021/01/15 07:32:09;;;;;;;28.90;19.92;;;1.50;99.90;;;;;;5015131;28;20658;-84
2021/01/15 07:34:43;;;;;;;31.48;20.95;;;1.50;99.90;;;;;;5015719;28;20335;-83
2021/01/15 07:37:20;;;;;;;30.90;20.73;;;1.40;99.90;;;;;;5014863;28;20244;-83
2021/01/15 07:40:07;;;;;;;30.83;18.45;;;1.40;99.90;;;;;;5015126;28;20606;-82
2021/01/15 07:42:42;;;;;;;27.13;17.50;;;1.30;99.90;;;;;;5015444;28;20202;-82
2021/01/15 07:45:09;;;;;;;31.17;18.95;;;1.40;99.90;;;;;;5014657;28;20267;-84
2021/01/15 07:47:37;;;;;;;31.00;20.45;;;1.50;99.90;;;;;;5015194;28;20252;-83
2021/01/15 07:50:08;;;;;;;26.08;17.98;;;1.40;99.90;;;;;;5015008;28;20221;-87
2021/01/15 07:52:34;;;;;;;26.25;18.15;;;1.50;99.90;;;;;;5014799;28;20620;-82
2021/01/15 07:55:01;;;;;;;26.60;17.70;;;1.60;99.90;;;;;;5014455;28;20207;-82
2021/01/15 07:57:30;;;;;;;28.80;16.17;;;1.60;99.90;;;;;;5014314;28;20956;-83
2021/01/15 07:59:57;;;;;;;27.75;19.23;;;1.60;99.90;;;;;;5014690;28;20559;-82
2021/01/15 08:02:23;;;;;;;29.42;18.50;;;1.70;99.90;;;;;;5014294;28;20348;-85
2021/01/15 08:04:50;;;;;;;28.63;18.38;;;1.60;99.90;;;;;;5014458;28;20694;-85
2021/01/15 08:07:30;;;;;;;28.77;20.00;;;1.60;99.90;;;;;;5014887;28;20297;-85
2021/01/15 08:09:56;;;;;;;32.47;18.95;;;1.60;99.90;;;;;;5015279;28;20780;-86
2021/01/15 08:12:23;;;;;;;29.55;17.45;;;1.50;99.90;;;;;;5007778;28;20221;-86
2021/01/15 08:14:50;;;;;;;28.98;18.27;;;1.50;99.90;;;;;;4999321;28;20605;-85
2021/01/15 08:17:25;;;;;;;29.65;18.52;;;1.60;99.90;;;;;;4995831;28;20214;-85
2021/01/15 08:19:53;;;;;;;30.92;17.48;;;1.60;99.90;;;;;;5011657;28;20308;-83
2021/01/15 08:22:21;;;;;;;24.05;16.75;;;1.60;99.90;;;;;;5014193;28;20218;-83
2021/01/15 08:24:49;;;;;;;25.17;16.83;;;1.70;99.90;;;;;;5014647;28;20262;-83
2021/01/15 08:27:17;;;;;;;30.35;19.52;;;1.80;99.90;;;;;;5012338;28;20195;-83
2021/01/15 08:29:44;;;;;;;23.15;15.82;;;1.80;99.90;;;;;;5013377;28;20222;-83
2021/01/15 08:32:11;;;;;;;28.83;16.43;;;1.70;99.90;;;;;;5013250;28;20300;-87
2021/01/15 08:34:39;;;;;;;27.95;17.35;;;1.80;99.90;;;;;;5015222;28;20450;-82
2021/01/15 08:37:06;;;;;;;28.17;17.00;;;1.60;99.90;;;;;;5033506;28;20209;-88
2021/01/15 08:39:43;;;;;;;25.95;16.73;;;1.80;99.90;;;;;;5033862;28;20278;-83
2021/01/15 08:42:10;;;;;;;25.87;17.63;;;1.80;99.90;;;;;;5014909;28;20635;-84
2021/01/15 08:44:39;;;;;;;29.48;18.60;;;1.90;99.90;;;;;;5013846;28;20979;-83
2021/01/15 08:47:08;;;;;;;26.83;17.90;;;1.90;99.90;;;;;;5013722;28;20626;-87
2021/01/15 08:49:35;;;;;;;31.15;17.40;;;1.90;99.90;;;;;;5011877;28;20541;-84
2021/01/15 08:52:02;;;;;;;32.85;18.08;;;1.90;99.90;;;;;;5014601;28;20227;-83
2021/01/15 08:54:33;;;;;;;24.13;16.77;;;1.90;99.90;;;;;;5021842;28;20297;-83
2021/01/15 08:57:04;;;;;;;31.33;19.08;;;1.80;99.90;;;;;;5012609;28;20461;-85
2021/01/15 08:59:32;;;;;;;27.08;17.35;;;1.80;99.90;;;;;;5013079;28;20214;-85
2021/01/15 09:02:00;;;;;;;27.73;18.40;;;1.80;99.90;;;;;;5014102;28;20550;-84
2021/01/15 09:04:28;;;;;;;30.02;17.90;;;1.80;99.90;;;;;;5005912;28;20351;-83
2021/01/15 09:06:55;;;;;;;27.10;17.55;;;1.90;99.90;;;;;;5013490;28;20198;-84
2021/01/15 09:09:23;;;;;;;26.83;17.23;;;2.00;99.90;;;;;;5012836;28;20585;-83
2021/01/15 09:11:50;;;;;;;25.38;15.73;;;2.10;99.90;;;;;;5013550;28;20292;-83
2021/01/15 09:14:20;;;;;;;27.25;18.23;;;2.10;99.90;;;;;;5012597;28;20237;-84
2021/01/15 09:16:48;;;;;;;30.48;21.10;;;2.10;99.90;;;;;;5013355;28;20209;-83
2021/01/15 09:19:16;;;;;;;29.50;19.35;;;1.90;99.90;;;;;;5011025;28;20828;-84
2021/01/15 09:21:47;;;;;;;32.15;20.60;;;1.80;99.90;;;;;;5015483;28;20210;-83
2021/01/15 09:24:13;;;;;;;31.27;18.10;;;1.80;99.90;;;;;;5013917;28;20207;-84
2021/01/15 09:26:40;;;;;;;33.97;19.23;;;1.90;99.90;;;;;;5013410;28;20297;-83
2021/01/15 09:29:06;;;;;;;30.10;20.63;;;1.80;99.90;;;;;;5014121;28;20212;-83
2021/01/15 09:31:33;;;;;;;25.50;17.38;;;1.80;99.90;;;;;;5016453;28;20258;-82
2021/01/15 09:34:00;;;;;;;29.00;18.63;;;1.80;99.90;;;;;;5019393;28;20236;-82
2021/01/15 09:36:27;;;;;;;29.85;16.58;;;1.90;99.90;;;;;;5017421;28;20254;-83
2021/01/15 09:38:55;;;;;;;25.95;15.30;;;2.00;99.90;;;;;;5015435;28;20313;-83
2021/01/15 09:41:22;;;;;;;24.57;16.10;;;2.10;99.90;;;;;;5022467;28;20237;-82
2021/01/15 09:43:53;;;;;;;30.77;18.20;;;2.10;99.90;;;;;;5021506;28;20481;-82
2021/01/15 09:46:24;;;;;;;27.90;16.95;;;2.00;99.90;;;;;;5020734;28;20511;-82
2021/01/15 09:48:52;;;;;;;25.88;14.98;;;2.00;99.90;;;;;;5018731;28;20262;-82
2021/01/15 09:51:22;;;;;;;25.77;16.42;;;2.20;99.90;;;;;;5016918;28;20288;-82
2021/01/15 09:53:48;;;;;;;24.90;14.33;;;2.20;99.90;;;;;;5017567;28;20215;-82
2021/01/15 09:56:22;;;;;;;28.67;16.20;;;2.20;99.90;;;;;;5015598;28;20458;-84
2021/01/15 09:58:49;;;;;;;21.10;14.18;;;2.20;99.90;;;;;;4997930;28;20487;-85
2021/01/15 10:01:17;;;;;;;25.70;15.63;;;2.40;99.90;;;;;;5013318;28;20662;-83
2021/01/15 10:03:43;;;;;;;21.42;13.50;;;2.50;99.90;;;;;;5017207;28;20211;-83
2021/01/15 10:06:13;;;;;;;20.40;13.23;;;2.60;99.90;;;;;;5017575;28;20292;-89
2021/01/15 10:08:40;;;;;;;25.87;16.20;;;2.50;99.90;;;;;;5021379;28;20767;-90
2021/01/15 10:11:07;;;;;;;21.70;14.40;;;2.70;99.90;;;;;;5017536;28;20452;-86
2021/01/15 10:13:33;;;;;;;23.70;15.33;;;2.70;99.90;;;;;;5016694;28;20485;-84
2021/01/15 10:16:04;;;;;;;23.50;15.73;;;2.70;99.90;;;;;;5017992;28;20548;-84
2021/01/15 10:18:30;;;;;;;20.15;13.75;;;2.90;99.90;;;;;;5015195;28;20532;-84
2021/01/15 10:20:57;;;;;;;22.10;14.73;;;3.00;99.90;;;;;;5015363;28;20290;-84
2021/01/15 10:23:23;;;;;;;23.00;15.03;;;3.10;99.90;;;;;;5023626;28;20448;-83
2021/01/15 10:25:51;;;;;;;26.00;13.23;;;3.20;99.90;;;;;;5019254;28;20449;-82
2021/01/15 10:28:17;;;;;;;27.13;13.23;;;3.10;99.90;;;;;;5015943;28;20461;-82
2021/01/15 10:30:46;;;;;;;26.13;13.60;;;3.10;99.90;;;;;;5018152;28;20522;-82
2021/01/15 10:33:13;;;;;;;22.43;11.63;;;3.20;99.90;;;;;;5035613;28;21002;-85
2021/01/15 10:35:39;;;;;;;21.53;13.70;;;3.20;99.90;;;;;;5036278;28;20457;-82
2021/01/15 10:38:06;;;;;;;21.00;13.37;;;3.30;99.90;;;;;;5028933;28;20458;-82
2021/01/15 10:40:32;;;;;;;18.10;11.73;;;3.30;99.90;;;;;;5015676;28;20449;-83
2021/01/15 10:43:00;;;;;;;21.37;13.23;;;3.40;99.90;;;;;;5016073;28;20880;-82
2021/01/15 10:45:26;;;;;;;18.37;13.33;;;3.60;99.90;;;;;;5009969;28;20456;-82
2021/01/15 10:47:53;;;;;;;20.10;12.00;;;3.70;99.90;;;;;;5017003;28;20690;-84
2021/01/15 10:50:19;;;;;;;21.77;12.47;;;3.80;99.90;;;;;;5017023;28;20469;-83
2021/01/15 10:52:52;;;;;;;19.17;11.53;;;3.70;99.90;;;;;;5016158;28;20522;-82
2021/01/15 10:55:18;;;;;;;16.50;11.43;;;3.80;99.90;;;;;;5016539;28;20493;-82
2021/01/15 10:57:45;;;;;;;21.20;11.73;;;3.80;99.90;;;;;;5017299;28;20469;-83
2021/01/15 11:00:14;;;;;;;16.13;11.00;;;3.90;99.90;;;;;;5015149;28;20604;-87
2021/01/15 11:02:40;;;;;;;17.17;10.03;;;3.80;99.90;;;;;;5016252;28;20536;-83
2021/01/15 11:05:08;;;;;;;12.93;9.70;;;3.90;99.90;;;;;;5016410;28;20475;-83
2021/01/15 11:07:34;;;;;;;18.33;10.37;;;4.00;99.90;;;;;;5007568;28;20541;-83
2021/01/15 11:10:00;;;;;;;15.00;9.83;;;3.90;99.90;;;;;;5027636;28;20517;-84
2021/01/15 11:12:27;;;;;;;21.73;10.40;;;3.90;99.90;;;;;;5020183;28;20541;-84
2021/01/15 11:14:53;;;;;;;18.80;9.53;;;4.00;99.90;;;;;;5010689;28;20550;-84
2021/01/15 11:17:20;;;;;;;20.50;10.43;;;4.00;99.90;;;;;;5006054;28;20464;-84
2021/01/15 11:19:47;;;;;;;15.23;9.33;;;4.00;99.90;;;;;;5011804;28;20572;-84
2021/01/15 11:22:13;;;;;;;16.43;8.87;;;4.00;99.90;;;;;;5006724;28;20459;-84
2021/01/15 11:24:40;;;;;;;17.57;10.37;;;4.00;99.90;;;;;;5018993;28;20447;-84
2021/01/15 11:27:06;;;;;;;18.90;10.43;;;4.10;99.90;;;;;;5019368;28;20889;-84
2021/01/15 11:29:32;;;;;;;15.77;10.73;;;4.10;99.90;;;;;;5014699;28;20466;-84
2021/01/15 11:31:59;;;;;;;16.60;10.40;;;4.20;99.90;;;;;;5016199;28;20461;-83
2021/01/15 11:34:27;;;;;;;15.60;9.77;;;4.30;99.90;;;;;;5025678;28;20460;-84
2021/01/15 11:36:53;;;;;;;16.30;9.00;;;4.30;99.90;;;;;;5016389;28;20961;-84
2021/01/15 11:39:19;;;;;;;20.97;10.57;;;4.40;99.90;;;;;;5019790;28;20888;-84
2021/01/15 11:41:51;;;;;;;16.50;9.13;;;4.40;99.90;;;;;;5015869;28;20449;-83
2021/01/15 11:44:18;;;;;;;18.80;10.13;;;4.40;99.90;;;;;;5013433;28;21033;-83
2021/01/15 11:46:45;;;;;;;16.43;9.80;;;4.40;99.90;;;;;;5011449;28;20533;-84
2021/01/15 11:49:12;;;;;;;13.93;8.50;;;4.50;99.90;;;;;;5015160;28;20450;-84
2021/01/15 11:51:39;;;;;;;13.60;8.97;;;4.40;99.90;;;;;;5014493;28;20543;-83
2021/01/15 11:54:12;;;;;;;16.00;9.23;;;4.40;99.90;;;;;;5014494;28;20541;-84
2021/01/15 11:56:39;;;;;;;14.77;10.47;;;4.40;99.90;;;;;;5015119;28;20558;-83
2021/01/15 11:59:06;;;;;;;13.20;9.30;;;4.10;99.90;;;;;;5015237;28;20476;-83
2021/01/15 12:01:32;;;;;;;14.33;9.60;;;4.10;99.90;;;;;;5014745;28;20456;-83
2021/01/15 12:03:58;;;;;;;14.70;9.63;;;4.10;99.90;;;;;;5015625;28;20560;-83
2021/01/15 12:06:25;;;;;;;15.83;7.87;;;4.10;99.90;;;;;;5014755;28;20799;-83
2021/01/15 12:08:52;;;;;;;17.47;10.57;;;4.30;99.90;;;;;;5014612;28;20462;-83
2021/01/15 12:11:19;;;;;;;17.67;10.87;;;4.30;99.90;;;;;;5014141;28;20485;-83
2021/01/15 12:13:46;;;;;;;16.40;9.43;;;4.20;99.90;;;;;;5011925;28;20470;-84
2021/01/15 12:16:13;;;;;;;16.07;10.57;;;4.30;99.90;;;;;;5013040;28;20479;-86
2021/01/15 12:18:40;;;;;;;14.90;10.33;;;4.30;99.90;;;;;;5013970;28;20493;-83
2021/01/15 12:21:06;;;;;;;16.80;10.50;;;4.20;99.90;;;;;;5014114;28;20464;-83
2021/01/15 12:23:33;;;;;;;21.63;10.20;;;4.20;99.90;;;;;;5013572;28;20458;-83
2021/01/15 12:26:02;;;;;;;17.00;10.10;;;4.10;99.90;;;;;;5014238;28;20454;-83
2021/01/15 12:28:28;;;;;;;20.60;10.20;;;3.90;99.90;;;;;;5014003;28;20505;-83
2021/01/15 12:30:55;;;;;;;16.13;10.73;;;3.80;99.90;;;;;;5014512;28;20537;-82
2021/01/15 12:33:22;;;;;;;19.20;10.70;;;3.70;99.90;;;;;;5014068;28;20452;-83
2021/01/15 12:35:50;;;;;;;16.20;11.27;;;3.60;99.90;;;;;;4998408;28;20483;-83
2021/01/15 12:38:18;;;;;;;13.60;8.93;;;3.70;99.90;;;;;;5015183;28;20451;-87
2021/01/15 12:40:46;;;;;;;17.07;10.30;;;3.70;99.90;;;;;;5015773;28;20508;-84
2021/01/15 12:43:14;;;;;;;15.03;9.07;;;3.70;99.90;;;;;;4997979;28;20482;-83
2021/01/15 12:45:43;;;;;;;19.40;11.77;;;3.70;99.90;;;;;;4996443;28;20512;-83
2021/01/15 12:48:10;;;;;;;17.90;11.23;;;3.70;99.90;;;;;;5002158;28;20533;-83
2021/01/15 12:50:37;;;;;;;14.67;9.77;;;3.60;99.90;;;;;;5014531;28;20515;-83